createdAt,value
2019-04-07T00:03:28.831Z,11.20
2019-04-07T00:08:34.173Z,11.20
2019-04-07T00:13:39.357Z,11.20
2019-04-07T00:18:44.461Z,11.10
2019-04-07T00:23:49.697Z,11.10
2019-04-07T00:28:55.212Z,11.10
2019-04-07T00:34:00.469Z,11.10
2019-04-07T00:39:07.473Z,11.10
2019-04-07T00:44:12.549Z,11.00
2019-04-07T00:49:17.449Z,11.00
2019-04-07T00:54:22.768Z,11.00
2019-04-07T00:59:28.637Z,10.90
2019-04-07T01:04:34.307Z,10.90
2019-04-07T01:09:39.914Z,10.80
2019-04-07T01:14:44.850Z,10.70
2019-04-07T01:24:55.161Z,10.30
2019-04-07T01:30:00.756Z,10.30
2019-04-07T01:35:06.180Z,10.40
2019-04-07T01:40:11.831Z,10.50
2019-04-07T01:45:30.299Z,10.50
2019-04-07T01:50:54.689Z,10.40
2019-04-07T01:56:37.299Z,10.00
2019-04-07T02:02:04.905Z,10.10
2019-04-07T02:07:17.363Z,10.10
2019-04-07T02:12:36.679Z,10.10
2019-04-07T02:18:00.925Z,10.10
2019-04-07T02:23:23.919Z,10.10
2019-04-07T02:28:51.353Z,10.10
2019-04-07T02:34:03.083Z,9.40
2019-04-07T02:39:30.137Z,9.80
2019-04-07T02:45:01.609Z,9.40
2019-04-07T02:50:20.599Z,9.10
2019-04-07T02:55:53.689Z,9.80
2019-04-07T03:01:22.237Z,9.90
2019-04-07T03:06:56.833Z,9.70
2019-04-07T03:12:23.940Z,9.90
2019-04-07T03:17:39.743Z,9.90
2019-04-07T03:22:52.790Z,9.90
2019-04-07T03:28:07.030Z,9.80
2019-04-07T03:33:22.773Z,9.50
2019-04-07T03:38:56.228Z,9.80
2019-04-07T03:44:15.318Z,9.80
2019-04-07T03:49:39.405Z,9.70
2019-04-07T03:55:04.892Z,9.30
2019-04-07T04:01:01.030Z,9.50
2019-04-07T04:06:25.937Z,9.60
2019-04-07T04:11:39.385Z,9.60
2019-04-07T04:16:49.107Z,9.60
2019-04-07T04:21:54.411Z,9.50
2019-04-07T04:26:59.566Z,9.50
2019-04-07T04:32:05.844Z,9.20
2019-04-07T04:37:11.165Z,8.20
2019-04-07T04:42:16.565Z,8.70
2019-04-07T04:47:21.872Z,8.60
2019-04-07T04:52:27.708Z,9.00
2019-04-07T04:57:32.713Z,9.20
2019-04-07T05:02:38.236Z,9.20
2019-04-07T05:07:54.061Z,9.30
2019-04-07T05:12:50.364Z,9.40
2019-04-07T05:17:56.060Z,9.50
2019-04-07T05:23:01.807Z,9.60
2019-04-07T05:28:07.909Z,9.60
2019-04-07T05:33:13.981Z,9.60
2019-04-07T05:38:20.013Z,9.60
2019-04-07T05:43:26.049Z,9.80
2019-04-07T05:48:31.673Z,9.80
2019-04-07T05:53:37.695Z,9.90
2019-04-07T05:58:43.882Z,9.90
2019-04-07T06:03:49.446Z,9.90
2019-04-07T06:08:55.116Z,9.90
2019-04-07T06:14:00.881Z,10.00
2019-04-07T06:19:08.090Z,10.00
2019-04-07T06:24:12.589Z,10.00
2019-04-07T06:29:18.320Z,10.10
2019-04-07T06:34:23.787Z,10.30
2019-04-07T06:39:31.894Z,10.40
2019-04-07T06:44:38.538Z,10.50
2019-04-07T06:50:17.949Z,10.50
2019-04-07T06:55:58.438Z,10.30
2019-04-07T07:01:28.594Z,10.30
2019-04-07T07:06:55.850Z,10.10
2019-04-07T07:12:35.670Z,10.10
2019-04-07T07:17:56.976Z,10.30
2019-04-07T07:23:13.300Z,10.40
2019-04-07T07:28:19.452Z,10.70
2019-04-07T07:33:24.582Z,11.10
2019-04-07T07:38:31.118Z,11.30
2019-04-07T07:43:36.925Z,11.30
2019-04-07T07:48:42.495Z,11.60
2019-04-07T07:53:47.447Z,11.60
2019-04-07T07:58:53.051Z,11.90
2019-04-07T08:03:58.640Z,12.20
2019-04-07T08:09:12.008Z,12.30
2019-04-07T08:14:15.511Z,12.50
2019-04-07T08:19:19.040Z,13.00
2019-04-07T08:24:24.172Z,13.10
2019-04-07T08:29:30.136Z,13.50
2019-04-07T08:34:36.136Z,13.50
2019-04-07T08:39:42.106Z,13.60
2019-04-07T08:44:47.364Z,13.70
2019-04-07T08:49:55.372Z,14.10
2019-04-07T08:54:59.503Z,14.00
2019-04-07T09:00:06.258Z,14.10
2019-04-07T09:05:11.691Z,14.30
2019-04-07T09:10:23.358Z,14.70
2019-04-07T09:15:36.874Z,14.70
2019-04-07T09:20:53.474Z,14.60
2019-04-07T09:26:23.849Z,15.00
2019-04-07T09:31:49.671Z,15.20
2019-04-07T09:37:26.192Z,15.30
2019-04-07T09:42:50.790Z,16.00
2019-04-07T09:48:05.565Z,15.40
2019-04-07T09:53:24.889Z,15.50
2019-04-07T09:59:04.541Z,15.70
2019-04-07T10:04:19.409Z,15.90
2019-04-07T10:09:35.691Z,16.10
2019-04-07T10:15:07.944Z,16.00
2019-04-07T10:20:22.318Z,16.20
2019-04-07T10:25:36.972Z,16.40
2019-04-07T10:30:50.872Z,16.40
2019-04-07T10:36:13.775Z,16.60
2019-04-07T10:41:38.257Z,16.70
2019-04-07T10:46:52.756Z,16.80
2019-04-07T10:52:23.511Z,17.00
2019-04-07T10:57:42.669Z,16.90
2019-04-07T11:02:56.892Z,17.10
2019-04-07T11:08:20.469Z,17.30
2019-04-07T11:13:40.353Z,17.20
2019-04-07T11:19:27.900Z,17.30
2019-04-07T11:24:48.258Z,17.40
2019-04-07T11:30:02.058Z,17.60
2019-04-07T11:35:21.134Z,17.70
2019-04-07T11:40:45.757Z,18.00
2019-04-07T11:45:59.992Z,18.00
2019-04-07T11:51:26.015Z,18.00
2019-04-07T11:56:39.429Z,18.20
2019-04-07T12:02:07.389Z,18.50
2019-04-07T12:07:33.389Z,18.50
2019-04-07T12:13:04.727Z,18.70
2019-04-07T12:18:32.874Z,18.60
2019-04-07T12:23:58.308Z,18.30
2019-04-07T12:29:12.347Z,18.60
2019-04-07T12:34:41.773Z,18.70
2019-04-07T12:40:13.298Z,19.00
2019-04-07T12:45:36.957Z,19.40
2019-04-07T12:50:55.267Z,19.40
2019-04-07T12:56:18.094Z,19.30
2019-04-07T13:01:38.212Z,19.10
2019-04-07T13:06:56.699Z,19.30
2019-04-07T13:12:25.033Z,19.10
2019-04-07T13:17:49.486Z,19.40
2019-04-07T13:23:07.921Z,19.40
2019-04-07T13:28:20.648Z,19.40
2019-04-07T13:33:37.982Z,19.20
2019-04-07T13:38:52.663Z,19.50
2019-04-07T13:44:16.154Z,19.40
2019-04-07T13:49:43.102Z,19.40
2019-04-07T13:55:10.138Z,19.40
2019-04-07T14:00:27.339Z,18.90
2019-04-07T14:05:50.458Z,19.30
2019-04-07T14:11:10.681Z,19.10
2019-04-07T14:16:41.290Z,19.10
2019-04-07T14:22:17.682Z,19.00
2019-04-07T14:27:31.881Z,19.30
2019-04-07T14:32:50.698Z,19.40
2019-04-07T14:38:13.662Z,19.40
2019-04-07T14:43:37.450Z,19.60
2019-04-07T14:49:06.670Z,19.50
2019-04-07T14:54:30.553Z,19.70
2019-04-07T14:59:44.948Z,19.60
2019-04-07T15:04:54.363Z,19.50
2019-04-07T15:10:12.380Z,19.60
2019-04-07T15:15:18.081Z,19.70
2019-04-07T15:20:23.902Z,19.80
2019-04-07T15:25:29.715Z,19.60
2019-04-07T15:30:36.228Z,19.60
2019-04-07T15:35:45.166Z,19.60
2019-04-07T15:40:48.166Z,19.60
2019-04-07T15:45:53.560Z,19.60
2019-04-07T15:51:01.887Z,19.60
2019-04-07T15:56:06.973Z,19.70
2019-04-07T16:01:12.146Z,19.70
2019-04-07T16:06:17.497Z,19.30
2019-04-07T16:11:24.720Z,19.20
2019-04-07T16:16:29.575Z,19.30
2019-04-07T16:21:34.701Z,19.40
2019-04-07T16:26:39.988Z,19.40
2019-04-07T16:31:45.230Z,19.30
2019-04-07T16:36:51.692Z,19.30
2019-04-07T16:41:56.787Z,19.40
2019-04-07T16:47:03.957Z,19.20
2019-04-07T16:52:09.836Z,19.30
2019-04-07T16:57:15.353Z,18.80
2019-04-07T17:02:20.718Z,18.80
2019-04-07T17:07:26.346Z,18.70
2019-04-07T17:12:32.358Z,18.70
2019-04-07T17:17:37.521Z,18.60
2019-04-07T17:22:46.017Z,18.60
2019-04-07T17:27:49.811Z,18.50
2019-04-07T17:32:54.829Z,18.50
2019-04-07T17:38:04.111Z,18.30
2019-04-07T17:43:36.050Z,18.20
2019-04-07T17:48:49.473Z,18.20
2019-04-07T17:54:06.345Z,18.10
2019-04-07T17:59:27.029Z,18.10
2019-04-07T18:04:55.110Z,18.10
2019-04-07T18:10:17.063Z,18.00
2019-04-07T18:15:53.073Z,18.10
2019-04-07T18:21:19.001Z,18.20
2019-04-07T18:26:35.467Z,18.20
2019-04-07T18:32:13.306Z,18.20
2019-04-07T18:37:42.168Z,18.10
2019-04-07T18:43:14.857Z,18.10
2019-04-07T18:48:42.333Z,18.00
2019-04-07T18:54:12.972Z,17.90
2019-04-07T18:59:28.080Z,17.90
2019-04-07T19:04:44.538Z,17.80
2019-04-07T19:10:09.400Z,17.80
2019-04-07T19:20:42.051Z,17.50
2019-04-07T19:26:06.713Z,17.40
2019-04-07T19:31:21.532Z,17.70
2019-04-07T19:36:55.864Z,17.50
2019-04-07T19:42:20.365Z,17.00
2019-04-07T19:47:53.720Z,16.70
2019-04-07T19:53:36.637Z,16.80
2019-04-07T19:58:58.352Z,16.90
2019-04-07T20:04:26.495Z,17.00
2019-04-07T20:09:54.602Z,16.80
2019-04-07T20:15:12.062Z,16.90
2019-04-07T20:20:46.246Z,16.90
2019-04-07T20:26:10.510Z,16.70
2019-04-07T20:31:34.309Z,16.60
2019-04-07T20:37:25.298Z,16.50
2019-04-07T20:43:03.254Z,16.40
2019-04-07T20:48:17.756Z,16.20
2019-04-07T20:54:03.465Z,16.00
2019-04-07T21:04:42.938Z,15.30
2019-04-07T21:10:07.604Z,15.20
2019-04-07T21:15:26.762Z,15.10
2019-04-07T21:20:46.403Z,14.90
2019-04-07T21:26:13.410Z,14.80
2019-04-07T21:31:26.141Z,14.90
2019-04-07T21:36:45.218Z,14.80
2019-04-07T21:42:16.257Z,14.60
2019-04-07T21:47:44.215Z,14.60
2019-04-07T21:53:26.483Z,14.60
2019-04-07T21:58:41.984Z,14.60
2019-04-07T22:04:08.385Z,14.50
2019-04-07T22:09:19.079Z,14.40
2019-04-07T22:14:23.993Z,14.40
2019-04-07T22:19:29.712Z,14.40
2019-04-07T22:24:35.958Z,14.40
2019-04-07T22:29:42.730Z,14.30
2019-04-07T22:34:48.577Z,14.20
2019-04-07T22:39:53.472Z,14.20
2019-04-07T22:44:58.615Z,14.00
2019-04-07T22:50:05.393Z,13.80
2019-04-07T22:55:10.698Z,13.90
2019-04-07T23:00:21.382Z,13.90
2019-04-07T23:05:27.633Z,13.60
2019-04-07T23:10:33.710Z,13.60
2019-04-07T23:15:45.490Z,13.70
2019-04-07T23:20:48.963Z,13.80
2019-04-07T23:25:54.381Z,13.70
2019-04-07T23:31:00.256Z,13.60
2019-04-07T23:36:05.918Z,13.50
2019-04-07T23:41:11.690Z,13.50
2019-04-07T23:46:23.954Z,13.40
2019-04-07T23:51:23.722Z,13.40
2019-04-07T23:56:29.415Z,13.30
